Terminal Aerodrome Forecast
Issued by NWS Lake Charles, LA

Home | Current Version | Previous Version | Text Only | Print | Product List | Glossary On
Versions: 1 2 3 4 5 6 7 8 9 10 11 12 13 14 15 16 17 18 19 20 21
000
FTUS44 KLCH 282300
TAFLCH
TAF
KLCH 282320Z 0100/0124 08010KT P6SM SCT050 BKN080
     FM010600 10010KT 6SM BR OVC025
      TEMPO 0108/0112 3SM BR OVC008
     FM011200 12007KT 3SM BR VCSH OVC008
      TEMPO 0112/0116 1/2SM FG VV001
     FM011600 15012KT 3SM BR VCSH OVC008 PROB30 0118/0124 1SM +SHRA
      BKN008 OVC025=

USA.gov is the U.S. government's official web portal to all federal, state and local government web resources and services.